Historique des mesures à Cassis (13260), France
Quotidien Résumé Avril 22, 2017 Unités:  US    Métrique   Métrique/US
« Précédent (Jour)
Suivant (Jour) »
Quotidien Hebdomadaire Mensuel Annuel Période au choix
  Maximum: Minimum: Moyenne:
Température: 32 °F 49.3 °F 56.1 °F
Point de rosée: 32 °F 39.6 °F 45.9 °F
Humidité: Humidity % 57 % 66 %
Vitesse du vent: WindSpeedKMH mph 0.0 mph 3.6 mph
Rafales: WindSpeedGustKMH mph - -
Vent:- - SSE
Pression: 0 in 30 in -
Précipitations: 0 in    
Historical Graphs
 
 
Mesures pour : Avril 22, 2017
Heure Temperature Point de rosée Pression Vent Vitesse du vent Rafales Humidité Pluie (par heure) Conditions
32 °F 32 °F 0 in Calm     Humidity % 0 in SoftwareType W/m2
00:11 50.5 °F 39.6 °F 30.3 in North 2.1 mph 2.1 mph 66 % 0 in open2300-1.11 W/m2
01:10 50.4 °F 40.3 °F 30.3 in NNE 1.8 mph 2.1 mph 68 % 0 in open2300-1.11 W/m2
02:10 49.6 °F 40.6 °F 30.3 in NNE 1.4 mph 2.6 mph 71 % 0 in open2300-1.11 W/m2
03:11 49.6 °F 41.7 °F 30.2 in North 3.2 mph 3.2 mph 74 % 0 in open2300-1.11 W/m2
04:10 50.2 °F 43 °F 30.2 in NNE 2.1 mph 2.6 mph 76 % 0 in open2300-1.11 W/m2
05:10 49.6 °F 42.6 °F 30.2 in NNE 2.6 mph 2.6 mph 77 % 0 in open2300-1.11 W/m2
06:11 49.3 °F 42.6 °F 30.2 in Calm     78 % 0 in open2300-1.11 W/m2
07:10 49.3 °F 43 °F 30.2 in Calm     79 % 0 in open2300-1.11 W/m2
08:11 52.9 °F 46.2 °F 30.2 in NNE 2.1 mph 2.1 mph 78 % 0 in open2300-1.11 W/m2
09:10 54.9 °F 47.5 °F 30.2 in NNW 2.6 mph 4.0 mph 76 % 0 in open2300-1.11 W/m2
10:10 56.5 °F 47.8 °F 30.2 in West 5.5 mph 6.4 mph 73 % 0 in open2300-1.11 W/m2
11:10 61.7 °F 48.6 °F 30.2 in WNW 9.3 mph 9.3 mph 62 % 0 in open2300-1.11 W/m2
12:11 64.8 °F 50 °F 30.2 in South 3.2 mph 4.0 mph 59 % 0 in open2300-1.11 W/m2
13:10 66 °F 50.7 °F 30.2 in WSW 8.2 mph 11.1 mph 58 % 0 in open2300-1.11 W/m2
14:10 66.4 °F 51.3 °F 30.1 in SW 9.7 mph 9.7 mph 58 % 0 in open2300-1.11 W/m2
15:10 65.7 °F 50 °F 30.1 in SSW 4.3 mph 16.6 mph 57 % 0 in open2300-1.11 W/m2
16:10 64.9 °F 50.2 °F 30.1 in SSW 19.1 mph 19.1 mph 59 % 0 in open2300-1.11 W/m2
17:10 63.3 °F 50.5 °F 30.1 in Calm   3.5 mph 63 % 0 in open2300-1.11 W/m2
18:11 63 °F 50.5 °F 30.1 in West 7.9 mph 16.6 mph 64 % 0 in open2300-1.11 W/m2
19:10 61.2 °F 49.3 °F 30.1 in SW 4.0 mph 8.7 mph 65 % 0 in open2300-1.11 W/m2
20:11 59.5 °F 48.2 °F 30.1 in Calm   4.0 mph 66 % 0 in open2300-1.11 W/m2
21:10 57.7 °F 47.1 °F 30.1 in Calm     68 % 0 in open2300-1.11 W/m2
22:10 55.6 °F 46.8 °F 30.1 in Calm     72 % 0 in open2300-1.11 W/m2
23:10 56.5 °F 47.8 °F 30 in Calm     73 % 0 in open2300-1.11 W/m2
Observations météo à CASSIS
WU-History script by Weather Underground - 1 mb